sensor_id;sensor_type;location;lat;lon;timestamp;P1;durP1;ratioP1;P2;durP2;ratioP2
51718;SDS011;37795;53.236;5.704;2023-10-13T00:01:23;45.60;;;33.25;;
51718;SDS011;37795;53.236;5.704;2023-10-13T00:03:49;56.63;;;35.55;;
51718;SDS011;37795;53.236;5.704;2023-10-13T00:06:19;54.60;;;34.28;;
51718;SDS011;37795;53.236;5.704;2023-10-13T00:08:45;41.37;;;32.43;;
51718;SDS011;37795;53.236;5.704;2023-10-13T00:11:11;58.53;;;38.85;;
51718;SDS011;37795;53.236;5.704;2023-10-13T00:13:41;52.22;;;38.78;;
51718;SDS011;37795;53.236;5.704;2023-10-13T00:16:16;62.57;;;41.93;;
51718;SDS011;37795;53.236;5.704;2023-10-13T00:18:46;52.10;;;39.17;;
51718;SDS011;37795;53.236;5.704;2023-10-13T00:21:13;47.15;;;36.83;;
51718;SDS011;37795;53.236;5.704;2023-10-13T00:23:41;53.53;;;38.67;;
51718;SDS011;37795;53.236;5.704;2023-10-13T00:29:00;52.20;;;36.50;;
51718;SDS011;37795;53.236;5.704;2023-10-13T00:31:36;52.97;;;38.17;;
51718;SDS011;37795;53.236;5.704;2023-10-13T00:34:05;48.83;;;39.28;;
51718;SDS011;37795;53.236;5.704;2023-10-13T00:36:41;50.90;;;37.17;;
51718;SDS011;37795;53.236;5.704;2023-10-13T00:39:25;50.00;;;38.55;;
51718;SDS011;37795;53.236;5.704;2023-10-13T00:41:54;45.13;;;37.70;;
51718;SDS011;37795;53.236;5.704;2023-10-13T00:44:24;51.28;;;39.80;;
51718;SDS011;37795;53.236;5.704;2023-10-13T00:47:12;44.80;;;35.40;;
51718;SDS011;37795;53.236;5.704;2023-10-13T00:50:03;44.55;;;37.33;;
51718;SDS011;37795;53.236;5.704;2023-10-13T00:52:30;43.15;;;35.78;;
51718;SDS011;37795;53.236;5.704;2023-10-13T00:55:00;48.88;;;38.28;;
51718;SDS011;37795;53.236;5.704;2023-10-13T00:57:26;45.50;;;34.35;;
51718;SDS011;37795;53.236;5.704;2023-10-13T00:59:52;38.67;;;33.92;;
51718;SDS011;37795;53.236;5.704;2023-10-13T01:02:19;38.97;;;33.72;;
51718;SDS011;37795;53.236;5.704;2023-10-13T01:05:01;33.40;;;29.10;;
51718;SDS011;37795;53.236;5.704;2023-10-13T01:07:28;35.13;;;28.38;;
51718;SDS011;37795;53.236;5.704;2023-10-13T01:09:54;37.25;;;27.15;;
51718;SDS011;37795;53.236;5.704;2023-10-13T01:12:20;31.25;;;25.83;;
51718;SDS011;37795;53.236;5.704;2023-10-13T01:14:49;31.55;;;25.60;;
51718;SDS011;37795;53.236;5.704;2023-10-13T01:17:15;30.38;;;24.50;;
51718;SDS011;37795;53.236;5.704;2023-10-13T01:19:41;30.43;;;23.93;;
51718;SDS011;37795;53.236;5.704;2023-10-13T01:22:11;26.60;;;22.38;;
51718;SDS011;37795;53.236;5.704;2023-10-13T01:24:37;24.52;;;21.48;;
51718;SDS011;37795;53.236;5.704;2023-10-13T01:27:06;24.42;;;20.25;;
51718;SDS011;37795;53.236;5.704;2023-10-13T01:29:44;23.33;;;19.55;;
51718;SDS011;37795;53.236;5.704;2023-10-13T01:32:19;25.98;;;19.92;;
51718;SDS011;37795;53.236;5.704;2023-10-13T01:34:46;24.02;;;19.70;;
51718;SDS011;37795;53.236;5.704;2023-10-13T01:37:14;22.27;;;17.50;;
51718;SDS011;37795;53.236;5.704;2023-10-13T01:39:41;21.40;;;16.15;;
51718;SDS011;37795;53.236;5.704;2023-10-13T01:42:07;19.60;;;16.02;;
51718;SDS011;37795;53.236;5.704;2023-10-13T01:44:33;19.02;;;14.05;;
51718;SDS011;37795;53.236;5.704;2023-10-13T01:46:59;15.57;;;13.00;;
51718;SDS011;37795;53.236;5.704;2023-10-13T01:49:32;14.63;;;12.00;;
51718;SDS011;37795;53.236;5.704;2023-10-13T01:52:08;18.38;;;12.35;;
51718;SDS011;37795;53.236;5.704;2023-10-13T01:54:40;14.90;;;11.57;;
51718;SDS011;37795;53.236;5.704;2023-10-13T01:57:09;12.65;;;10.73;;
51718;SDS011;37795;53.236;5.704;2023-10-13T01:59:39;15.15;;;9.73;;
51718;SDS011;37795;53.236;5.704;2023-10-13T02:02:09;12.27;;;9.02;;
51718;SDS011;37795;53.236;5.704;2023-10-13T02:04:38;14.15;;;8.60;;
51718;SDS011;37795;53.236;5.704;2023-10-13T02:07:17;10.93;;;8.10;;
51718;SDS011;37795;53.236;5.704;2023-10-13T02:09:42;13.60;;;7.97;;
51718;SDS011;37795;53.236;5.704;2023-10-13T02:12:09;9.00;;;6.70;;
51718;SDS011;37795;53.236;5.704;2023-10-13T02:14:35;13.20;;;8.10;;
51718;SDS011;37795;53.236;5.704;2023-10-13T02:17:03;11.23;;;7.35;;
51718;SDS011;37795;53.236;5.704;2023-10-13T02:19:39;12.05;;;7.25;;
51718;SDS011;37795;53.236;5.704;2023-10-13T02:22:09;12.10;;;7.50;;
51718;SDS011;37795;53.236;5.704;2023-10-13T02:24:36;13.00;;;8.02;;
51718;SDS011;37795;53.236;5.704;2023-10-13T02:27:06;12.90;;;8.38;;
51718;SDS011;37795;53.236;5.704;2023-10-13T02:29:39;12.32;;;7.57;;
51718;SDS011;37795;53.236;5.704;2023-10-13T02:32:05;15.52;;;8.75;;
51718;SDS011;37795;53.236;5.704;2023-10-13T02:34:43;11.60;;;8.25;;
51718;SDS011;37795;53.236;5.704;2023-10-13T02:37:10;11.50;;;9.00;;
51718;SDS011;37795;53.236;5.704;2023-10-13T02:39:36;13.00;;;9.02;;
51718;SDS011;37795;53.236;5.704;2023-10-13T02:42:06;12.32;;;9.48;;
51718;SDS011;37795;53.236;5.704;2023-10-13T02:44:36;12.55;;;9.18;;
51718;SDS011;37795;53.236;5.704;2023-10-13T02:47:02;13.10;;;9.73;;
51718;SDS011;37795;53.236;5.704;2023-10-13T02:49:39;16.30;;;10.93;;
51718;SDS011;37795;53.236;5.704;2023-10-13T02:52:12;21.42;;;11.50;;
51718;SDS011;37795;53.236;5.704;2023-10-13T02:54:41;12.90;;;11.00;;
51718;SDS011;37795;53.236;5.704;2023-10-13T02:57:16;18.33;;;12.87;;
51718;SDS011;37795;53.236;5.704;2023-10-13T02:59:42;13.68;;;12.25;;
51718;SDS011;37795;53.236;5.704;2023-10-13T03:02:14;12.90;;;11.52;;
51718;SDS011;37795;53.236;5.704;2023-10-13T03:04:55;14.90;;;13.25;;
51718;SDS011;37795;53.236;5.704;2023-10-13T03:07:24;16.35;;;13.60;;
51718;SDS011;37795;53.236;5.704;2023-10-13T03:09:53;20.37;;;13.53;;
51718;SDS011;37795;53.236;5.704;2023-10-13T03:12:25;16.48;;;12.70;;
51718;SDS011;37795;53.236;5.704;2023-10-13T03:14:51;17.15;;;13.90;;
51718;SDS011;37795;53.236;5.704;2023-10-13T03:17:31;18.15;;;14.32;;
51718;SDS011;37795;53.236;5.704;2023-10-13T03:20:00;19.73;;;16.63;;
51718;SDS011;37795;53.236;5.704;2023-10-13T03:22:25;18.73;;;15.48;;
51718;SDS011;37795;53.236;5.704;2023-10-13T03:24:58;23.77;;;19.40;;
51718;SDS011;37795;53.236;5.704;2023-10-13T03:27:38;24.73;;;20.17;;
51718;SDS011;37795;53.236;5.704;2023-10-13T03:30:24;24.02;;;21.50;;
51718;SDS011;37795;53.236;5.704;2023-10-13T03:33:16;24.42;;;21.80;;
51718;SDS011;37795;53.236;5.704;2023-10-13T03:35:50;27.65;;;22.25;;
51718;SDS011;37795;53.236;5.704;2023-10-13T03:38:19;27.35;;;22.52;;
51718;SDS011;37795;53.236;5.704;2023-10-13T03:40:46;27.63;;;22.83;;
51718;SDS011;37795;53.236;5.704;2023-10-13T03:43:21;27.15;;;21.92;;
51718;SDS011;37795;53.236;5.704;2023-10-13T03:45:48;26.63;;;22.80;;
51718;SDS011;37795;53.236;5.704;2023-10-13T03:48:26;26.95;;;22.92;;
51718;SDS011;37795;53.236;5.704;2023-10-13T03:50:52;24.42;;;21.55;;
51718;SDS011;37795;53.236;5.704;2023-10-13T03:53:27;30.85;;;23.65;;
51718;SDS011;37795;53.236;5.704;2023-10-13T03:55:58;23.80;;;21.27;;
51718;SDS011;37795;53.236;5.704;2023-10-13T03:58:41;24.85;;;22.13;;
51718;SDS011;37795;53.236;5.704;2023-10-13T04:01:11;31.10;;;23.23;;
51718;SDS011;37795;53.236;5.704;2023-10-13T04:03:40;24.67;;;20.67;;
51718;SDS011;37795;53.236;5.704;2023-10-13T04:06:24;24.87;;;22.20;;
51718;SDS011;37795;53.236;5.704;2023-10-13T04:09:08;24.75;;;21.55;;
51718;SDS011;37795;53.236;5.704;2023-10-13T04:12:04;22.88;;;20.45;;
51718;SDS011;37795;53.236;5.704;2023-10-13T04:14:39;22.08;;;19.20;;
51718;SDS011;37795;53.236;5.704;2023-10-13T04:17:24;24.40;;;21.38;;
51718;SDS011;37795;53.236;5.704;2023-10-13T04:19:55;22.73;;;19.92;;
51718;SDS011;37795;53.236;5.704;2023-10-13T04:22:31;20.80;;;18.77;;
51718;SDS011;37795;53.236;5.704;2023-10-13T04:25:12;23.55;;;19.38;;
51718;SDS011;37795;53.236;5.704;2023-10-13T04:27:56;21.40;;;18.60;;
51718;SDS011;37795;53.236;5.704;2023-10-13T04:30:49;20.65;;;18.15;;
51718;SDS011;37795;53.236;5.704;2023-10-13T04:33:19;17.70;;;15.88;;
51718;SDS011;37795;53.236;5.704;2023-10-13T04:36:06;15.07;;;13.18;;
51718;SDS011;37795;53.236;5.704;2023-10-13T04:38:45;14.50;;;13.02;;
51718;SDS011;37795;53.236;5.704;2023-10-13T04:41:25;12.65;;;11.35;;
51718;SDS011;37795;53.236;5.704;2023-10-13T04:44:03;13.15;;;11.75;;
51718;SDS011;37795;53.236;5.704;2023-10-13T04:46:47;10.13;;;9.07;;
51718;SDS011;37795;53.236;5.704;2023-10-13T04:49:13;8.98;;;8.13;;
51718;SDS011;37795;53.236;5.704;2023-10-13T04:51:55;10.30;;;9.30;;
51718;SDS011;37795;53.236;5.704;2023-10-13T04:54:27;11.05;;;9.77;;
51718;SDS011;37795;53.236;5.704;2023-10-13T04:57:14;13.80;;;12.40;;
51718;SDS011;37795;53.236;5.704;2023-10-13T04:59:45;17.02;;;13.93;;
51718;SDS011;37795;53.236;5.704;2023-10-13T05:02:32;15.40;;;13.82;;
51718;SDS011;37795;53.236;5.704;2023-10-13T05:05:08;16.30;;;14.60;;
51718;SDS011;37795;53.236;5.704;2023-10-13T05:08:07;16.87;;;15.27;;
51718;SDS011;37795;53.236;5.704;2023-10-13T05:10:51;13.85;;;12.52;;
51718;SDS011;37795;53.236;5.704;2023-10-13T05:13:36;15.25;;;13.73;;
51718;SDS011;37795;53.236;5.704;2023-10-13T05:16:20;15.13;;;13.68;;
51718;SDS011;37795;53.236;5.704;2023-10-13T05:19:04;13.48;;;12.18;;
51718;SDS011;37795;53.236;5.704;2023-10-13T05:21:48;13.52;;;12.23;;
51718;SDS011;37795;53.236;5.704;2023-10-13T05:24:32;14.20;;;11.32;;
51718;SDS011;37795;53.236;5.704;2023-10-13T05:27:16;12.23;;;10.93;;
51718;SDS011;37795;53.236;5.704;2023-10-13T05:30:00;12.63;;;11.48;;
51718;SDS011;37795;53.236;5.704;2023-10-13T05:32:45;12.80;;;11.48;;
51718;SDS011;37795;53.236;5.704;2023-10-13T05:35:30;13.38;;;11.73;;
51718;SDS011;37795;53.236;5.704;2023-10-13T05:38:15;12.55;;;10.55;;
51718;SDS011;37795;53.236;5.704;2023-10-13T05:41:00;7.68;;;6.88;;
51718;SDS011;37795;53.236;5.704;2023-10-13T05:43:45;6.82;;;5.78;;
51718;SDS011;37795;53.236;5.704;2023-10-13T05:46:30;5.32;;;4.82;;
51718;SDS011;37795;53.236;5.704;2023-10-13T05:49:02;8.73;;;5.33;;
51718;SDS011;37795;53.236;5.704;2023-10-13T05:51:41;4.40;;;4.00;;
51718;SDS011;37795;53.236;5.704;2023-10-13T05:54:07;4.25;;;3.85;;
51718;SDS011;37795;53.236;5.704;2023-10-13T05:56:42;5.82;;;4.97;;
51718;SDS011;37795;53.236;5.704;2023-10-13T05:59:31;5.65;;;4.85;;
51718;SDS011;37795;53.236;5.704;2023-10-13T06:02:16;6.07;;;4.50;;
51718;SDS011;37795;53.236;5.704;2023-10-13T06:05:08;5.25;;;4.60;;
51718;SDS011;37795;53.236;5.704;2023-10-13T06:07:53;6.55;;;5.13;;
51718;SDS011;37795;53.236;5.704;2023-10-13T06:10:38;6.43;;;5.80;;
51718;SDS011;37795;53.236;5.704;2023-10-13T06:13:23;7.68;;;5.60;;
51718;SDS011;37795;53.236;5.704;2023-10-13T06:16:11;5.70;;;5.15;;
51718;SDS011;37795;53.236;5.704;2023-10-13T06:18:57;5.55;;;5.05;;
51718;SDS011;37795;53.236;5.704;2023-10-13T06:21:42;6.28;;;5.45;;
51718;SDS011;37795;53.236;5.704;2023-10-13T06:24:28;5.70;;;5.20;;
51718;SDS011;37795;53.236;5.704;2023-10-13T06:27:12;6.33;;;4.53;;
51718;SDS011;37795;53.236;5.704;2023-10-13T06:29:56;7.13;;;5.28;;
51718;SDS011;37795;53.236;5.704;2023-10-13T06:32:23;7.55;;;4.95;;
51718;SDS011;37795;53.236;5.704;2023-10-13T06:34:54;6.93;;;4.72;;
51718;SDS011;37795;53.236;5.704;2023-10-13T06:37:30;9.63;;;5.10;;
51718;SDS011;37795;53.236;5.704;2023-10-13T06:40:01;13.13;;;6.22;;
51718;SDS011;37795;53.236;5.704;2023-10-13T06:42:31;15.45;;;7.50;;
51718;SDS011;37795;53.236;5.704;2023-10-13T06:45:00;17.23;;;6.57;;
51718;SDS011;37795;53.236;5.704;2023-10-13T06:53:40;9.73;;;5.10;;
51718;SDS011;37795;53.236;5.704;2023-10-13T06:56:11;8.25;;;4.20;;
51718;SDS011;37795;53.236;5.704;2023-10-13T06:58:43;6.28;;;4.22;;
51718;SDS011;37795;53.236;5.704;2023-10-13T07:01:09;7.57;;;4.47;;
51718;SDS011;37795;53.236;5.704;2023-10-13T07:03:40;8.13;;;4.80;;
51718;SDS011;37795;53.236;5.704;2023-10-13T07:06:14;7.90;;;4.72;;
51718;SDS011;37795;53.236;5.704;2023-10-13T07:08:45;13.23;;;5.78;;
51718;SDS011;37795;53.236;5.704;2023-10-13T07:11:17;16.52;;;6.25;;
51718;SDS011;37795;53.236;5.704;2023-10-13T07:13:59;15.20;;;6.32;;
51718;SDS011;37795;53.236;5.704;2023-10-13T07:16:34;21.90;;;7.30;;
51718;SDS011;37795;53.236;5.704;2023-10-13T07:19:01;20.15;;;7.28;;
51718;SDS011;37795;53.236;5.704;2023-10-13T07:21:32;18.08;;;8.20;;
51718;SDS011;37795;53.236;5.704;2023-10-13T07:23:58;18.90;;;7.78;;
51718;SDS011;37795;53.236;5.704;2023-10-13T07:26:34;17.50;;;8.77;;
51718;SDS011;37795;53.236;5.704;2023-10-13T07:29:07;23.58;;;8.45;;
51718;SDS011;37795;53.236;5.704;2023-10-13T07:31:37;18.02;;;7.43;;
51718;SDS011;37795;53.236;5.704;2023-10-13T07:34:04;17.05;;;7.53;;
51718;SDS011;37795;53.236;5.704;2023-10-13T07:36:35;19.38;;;8.52;;
51718;SDS011;37795;53.236;5.704;2023-10-13T07:39:04;19.05;;;8.25;;
51718;SDS011;37795;53.236;5.704;2023-10-13T07:41:49;15.25;;;6.97;;
51718;SDS011;37795;53.236;5.704;2023-10-13T07:44:35;17.25;;;8.57;;
51718;SDS011;37795;53.236;5.704;2023-10-13T07:47:02;18.33;;;8.25;;
51718;SDS011;37795;53.236;5.704;2023-10-13T07:49:34;18.75;;;8.10;;
51718;SDS011;37795;53.236;5.704;2023-10-13T07:52:04;17.27;;;7.27;;
51718;SDS011;37795;53.236;5.704;2023-10-13T07:54:57;14.35;;;7.93;;
51718;SDS011;37795;53.236;5.704;2023-10-13T07:57:40;21.15;;;9.70;;
51718;SDS011;37795;53.236;5.704;2023-10-13T08:00:22;23.35;;;9.48;;
51718;SDS011;37795;53.236;5.704;2023-10-13T08:03:12;24.20;;;8.82;;
51718;SDS011;37795;53.236;5.704;2023-10-13T08:05:41;18.47;;;8.30;;
51718;SDS011;37795;53.236;5.704;2023-10-13T08:08:25;26.85;;;10.90;;
51718;SDS011;37795;53.236;5.704;2023-10-13T08:11:00;22.33;;;8.20;;
51718;SDS011;37795;53.236;5.704;2023-10-13T08:13:35;22.45;;;8.50;;
51718;SDS011;37795;53.236;5.704;2023-10-13T08:16:05;21.45;;;7.82;;
51718;SDS011;37795;53.236;5.704;2023-10-13T08:18:34;23.35;;;7.57;;
51718;SDS011;37795;53.236;5.704;2023-10-13T08:21:04;18.23;;;8.32;;
51718;SDS011;37795;53.236;5.704;2023-10-13T08:23:31;16.73;;;7.18;;
51718;SDS011;37795;53.236;5.704;2023-10-13T08:26:20;15.25;;;6.55;;
51718;SDS011;37795;53.236;5.704;2023-10-13T08:29:02;14.55;;;6.93;;
51718;SDS011;37795;53.236;5.704;2023-10-13T08:31:47;14.07;;;6.82;;
51718;SDS011;37795;53.236;5.704;2023-10-13T08:34:28;15.43;;;6.10;;
51718;SDS011;37795;53.236;5.704;2023-10-13T08:37:05;17.15;;;6.93;;
51718;SDS011;37795;53.236;5.704;2023-10-13T08:39:46;9.48;;;5.78;;
51718;SDS011;37795;53.236;5.704;2023-10-13T08:42:28;8.35;;;5.38;;
51718;SDS011;37795;53.236;5.704;2023-10-13T08:45:16;14.82;;;6.32;;
51718;SDS011;37795;53.236;5.704;2023-10-13T08:47:48;9.00;;;6.03;;
51718;SDS011;37795;53.236;5.704;2023-10-13T08:50:45;9.20;;;6.50;;
51718;SDS011;37795;53.236;5.704;2023-10-13T08:53:19;7.85;;;6.07;;
51718;SDS011;37795;53.236;5.704;2023-10-13T09:01:25;18.73;;;7.32;;
51718;SDS011;37795;53.236;5.704;2023-10-13T09:04:17;10.85;;;7.53;;
51718;SDS011;37795;53.236;5.704;2023-10-13T09:12:12;12.13;;;7.80;;
51718;SDS011;37795;53.236;5.704;2023-10-13T09:14:42;12.25;;;7.78;;
51718;SDS011;37795;53.236;5.704;2023-10-13T09:17:09;11.90;;;7.95;;
51718;SDS011;37795;53.236;5.704;2023-10-13T09:19:55;17.95;;;8.40;;
51718;SDS011;37795;53.236;5.704;2023-10-13T09:22:25;12.93;;;7.38;;
51718;SDS011;37795;53.236;5.704;2023-10-13T09:25:04;12.77;;;8.68;;
51718;SDS011;37795;53.236;5.704;2023-10-13T09:27:30;10.57;;;8.25;;
51718;SDS011;37795;53.236;5.704;2023-10-13T09:30:04;17.20;;;8.55;;
51718;SDS011;37795;53.236;5.704;2023-10-13T09:33:02;13.02;;;7.97;;
51718;SDS011;37795;53.236;5.704;2023-10-13T09:35:33;17.10;;;8.55;;
51718;SDS011;37795;53.236;5.704;2023-10-13T09:38:02;12.90;;;7.60;;
51718;SDS011;37795;53.236;5.704;2023-10-13T09:40:29;10.13;;;7.37;;
51718;SDS011;37795;53.236;5.704;2023-10-13T09:42:58;16.42;;;8.05;;
51718;SDS011;37795;53.236;5.704;2023-10-13T09:45:30;13.68;;;6.93;;
51718;SDS011;37795;53.236;5.704;2023-10-13T09:48:03;15.73;;;7.97;;
51718;SDS011;37795;53.236;5.704;2023-10-13T09:50:41;13.57;;;7.28;;
51718;SDS011;37795;53.236;5.704;2023-10-13T09:53:12;13.70;;;6.78;;
51718;SDS011;37795;53.236;5.704;2023-10-13T09:56:00;18.00;;;8.57;;
51718;SDS011;37795;53.236;5.704;2023-10-13T09:58:46;15.75;;;7.78;;
51718;SDS011;37795;53.236;5.704;2023-10-13T10:01:23;10.40;;;6.70;;
51718;SDS011;37795;53.236;5.704;2023-10-13T10:04:07;11.77;;;7.22;;
51718;SDS011;37795;53.236;5.704;2023-10-13T10:06:35;16.10;;;7.28;;
51718;SDS011;37795;53.236;5.704;2023-10-13T10:09:06;13.40;;;7.72;;
51718;SDS011;37795;53.236;5.704;2023-10-13T10:17:38;11.20;;;6.47;;
51718;SDS011;37795;53.236;5.704;2023-10-13T10:20:08;17.42;;;8.23;;
51718;SDS011;37795;53.236;5.704;2023-10-13T10:22:40;11.35;;;6.40;;
51718;SDS011;37795;53.236;5.704;2023-10-13T10:25:27;19.08;;;7.97;;
51718;SDS011;37795;53.236;5.704;2023-10-13T10:27:55;20.08;;;8.98;;
51718;SDS011;37795;53.236;5.704;2023-10-13T10:30:24;15.00;;;7.35;;
51718;SDS011;37795;53.236;5.704;2023-10-13T10:32:55;11.55;;;7.75;;
51718;SDS011;37795;53.236;5.704;2023-10-13T10:35:24;13.73;;;7.88;;
51718;SDS011;37795;53.236;5.704;2023-10-13T10:38:17;12.57;;;7.38;;
51718;SDS011;37795;53.236;5.704;2023-10-13T10:40:57;14.15;;;7.07;;
51718;SDS011;37795;53.236;5.704;2023-10-13T10:53:42;18.52;;;7.10;;
51718;SDS011;37795;53.236;5.704;2023-10-13T10:56:10;10.50;;;6.53;;
51718;SDS011;37795;53.236;5.704;2023-10-13T10:58:52;13.23;;;6.70;;
51718;SDS011;37795;53.236;5.704;2023-10-13T11:01:29;20.42;;;8.25;;
51718;SDS011;37795;53.236;5.704;2023-10-13T11:04:09;12.88;;;7.07;;
51718;SDS011;37795;53.236;5.704;2023-10-13T11:06:56;12.53;;;7.47;;
51718;SDS011;37795;53.236;5.704;2023-10-13T11:09:26;13.52;;;8.10;;
51718;SDS011;37795;53.236;5.704;2023-10-13T11:11:56;14.10;;;6.95;;
51718;SDS011;37795;53.236;5.704;2023-10-13T11:15:02;16.73;;;7.50;;
51718;SDS011;37795;53.236;5.704;2023-10-13T11:17:50;26.00;;;8.23;;
51718;SDS011;37795;53.236;5.704;2023-10-13T11:20:20;23.95;;;8.50;;
51718;SDS011;37795;53.236;5.704;2023-10-13T11:23:13;13.02;;;7.55;;
51718;SDS011;37795;53.236;5.704;2023-10-13T11:25:40;14.02;;;7.25;;
51718;SDS011;37795;53.236;5.704;2023-10-13T11:28:10;12.90;;;7.10;;
51718;SDS011;37795;53.236;5.704;2023-10-13T11:30:46;18.27;;;7.75;;
51718;SDS011;37795;53.236;5.704;2023-10-13T11:33:15;14.70;;;7.53;;
51718;SDS011;37795;53.236;5.704;2023-10-13T11:35:57;11.77;;;6.50;;
51718;SDS011;37795;53.236;5.704;2023-10-13T11:38:34;13.27;;;6.80;;
51718;SDS011;37795;53.236;5.704;2023-10-13T11:41:15;18.95;;;8.27;;
51718;SDS011;37795;53.236;5.704;2023-10-13T11:43:45;13.68;;;6.63;;
51718;SDS011;37795;53.236;5.704;2023-10-13T11:46:16;13.60;;;7.70;;
51718;SDS011;37795;53.236;5.704;2023-10-13T11:49:10;14.68;;;7.05;;
51718;SDS011;37795;53.236;5.704;2023-10-13T11:51:44;12.07;;;7.28;;
51718;SDS011;37795;53.236;5.704;2023-10-13T11:54:14;16.63;;;7.68;;
51718;SDS011;37795;53.236;5.704;2023-10-13T11:56:44;15.75;;;8.60;;
51718;SDS011;37795;53.236;5.704;2023-10-13T11:59:10;19.20;;;9.10;;
51718;SDS011;37795;53.236;5.704;2023-10-13T12:01:45;18.73;;;9.30;;
51718;SDS011;37795;53.236;5.704;2023-10-13T12:04:30;18.90;;;8.55;;
51718;SDS011;37795;53.236;5.704;2023-10-13T12:07:15;23.80;;;9.70;;
51718;SDS011;37795;53.236;5.704;2023-10-13T12:09:52;17.35;;;8.75;;
51718;SDS011;37795;53.236;5.704;2023-10-13T12:14:48;17.27;;;9.35;;
51718;SDS011;37795;53.236;5.704;2023-10-13T12:17:30;19.30;;;8.85;;
51718;SDS011;37795;53.236;5.704;2023-10-13T12:20:07;15.23;;;8.55;;
51718;SDS011;37795;53.236;5.704;2023-10-13T12:22:42;19.08;;;9.00;;
51718;SDS011;37795;53.236;5.704;2023-10-13T12:25:09;22.42;;;10.13;;
51718;SDS011;37795;53.236;5.704;2023-10-13T12:27:50;19.08;;;9.80;;
51718;SDS011;37795;53.236;5.704;2023-10-13T12:30:23;21.92;;;9.93;;
51718;SDS011;37795;53.236;5.704;2023-10-13T12:33:09;15.33;;;9.13;;
51718;SDS011;37795;53.236;5.704;2023-10-13T12:35:35;14.38;;;8.85;;
51718;SDS011;37795;53.236;5.704;2023-10-13T12:38:28;18.63;;;8.93;;
51718;SDS011;37795;53.236;5.704;2023-10-13T12:41:16;19.38;;;9.52;;
51718;SDS011;37795;53.236;5.704;2023-10-13T12:44:02;20.02;;;9.80;;
51718;SDS011;37795;53.236;5.704;2023-10-13T12:46:47;16.55;;;9.98;;
51718;SDS011;37795;53.236;5.704;2023-10-13T12:49:34;18.63;;;10.35;;
51718;SDS011;37795;53.236;5.704;2023-10-13T12:52:10;16.08;;;9.93;;
51718;SDS011;37795;53.236;5.704;2023-10-13T12:54:42;18.60;;;9.45;;
51718;SDS011;37795;53.236;5.704;2023-10-13T12:57:13;20.85;;;10.15;;
51718;SDS011;37795;53.236;5.704;2023-10-13T12:59:40;18.27;;;9.48;;
51718;SDS011;37795;53.236;5.704;2023-10-13T13:02:06;19.75;;;10.85;;
51718;SDS011;37795;53.236;5.704;2023-10-13T13:04:33;19.40;;;10.23;;
51718;SDS011;37795;53.236;5.704;2023-10-13T13:07:02;21.23;;;10.43;;
51718;SDS011;37795;53.236;5.704;2023-10-13T13:09:30;21.88;;;9.93;;
51718;SDS011;37795;53.236;5.704;2023-10-13T13:11:56;19.75;;;10.60;;
51718;SDS011;37795;53.236;5.704;2023-10-13T13:14:23;24.27;;;11.60;;
51718;SDS011;37795;53.236;5.704;2023-10-13T13:16:57;17.85;;;10.98;;
51718;SDS011;37795;53.236;5.704;2023-10-13T13:19:36;23.75;;;11.05;;
51718;SDS011;37795;53.236;5.704;2023-10-13T13:22:05;17.55;;;11.68;;
51718;SDS011;37795;53.236;5.704;2023-10-13T13:24:40;22.00;;;10.95;;
51718;SDS011;37795;53.236;5.704;2023-10-13T13:27:11;26.70;;;11.32;;
51718;SDS011;37795;53.236;5.704;2023-10-13T13:29:44;26.58;;;11.63;;
51718;SDS011;37795;53.236;5.704;2023-10-13T13:32:10;23.37;;;11.37;;
51718;SDS011;37795;53.236;5.704;2023-10-13T13:34:44;19.27;;;11.85;;
51718;SDS011;37795;53.236;5.704;2023-10-13T13:37:19;23.02;;;11.20;;
51718;SDS011;37795;53.236;5.704;2023-10-13T13:39:45;25.30;;;12.18;;
51718;SDS011;37795;53.236;5.704;2023-10-13T13:42:11;26.13;;;12.85;;
51718;SDS011;37795;53.236;5.704;2023-10-13T13:44:43;26.95;;;11.63;;
51718;SDS011;37795;53.236;5.704;2023-10-13T13:47:12;19.67;;;11.18;;
51718;SDS011;37795;53.236;5.704;2023-10-13T13:49:39;25.40;;;10.68;;
51718;SDS011;37795;53.236;5.704;2023-10-13T13:52:18;28.25;;;13.10;;
51718;SDS011;37795;53.236;5.704;2023-10-13T13:54:53;27.38;;;12.27;;
51718;SDS011;37795;53.236;5.704;2023-10-13T13:57:18;24.90;;;10.93;;
51718;SDS011;37795;53.236;5.704;2023-10-13T13:59:44;34.40;;;12.70;;
51718;SDS011;37795;53.236;5.704;2023-10-13T14:02:10;28.50;;;10.93;;
51718;SDS011;37795;53.236;5.704;2023-10-13T14:04:45;22.08;;;10.80;;
51718;SDS011;37795;53.236;5.704;2023-10-13T14:07:15;29.50;;;12.38;;
51718;SDS011;37795;53.236;5.704;2023-10-13T14:09:44;24.42;;;12.00;;
51718;SDS011;37795;53.236;5.704;2023-10-13T14:12:10;28.38;;;12.30;;
51718;SDS011;37795;53.236;5.704;2023-10-13T14:14:50;26.42;;;12.48;;
51718;SDS011;37795;53.236;5.704;2023-10-13T14:17:21;32.67;;;12.18;;
51718;SDS011;37795;53.236;5.704;2023-10-13T14:19:55;29.65;;;12.48;;
51718;SDS011;37795;53.236;5.704;2023-10-13T14:22:21;26.07;;;11.20;;
51718;SDS011;37795;53.236;5.704;2023-10-13T14:24:50;26.63;;;11.48;;
51718;SDS011;37795;53.236;5.704;2023-10-13T14:27:19;27.70;;;12.43;;
51718;SDS011;37795;53.236;5.704;2023-10-13T14:29:48;31.50;;;11.90;;
51718;SDS011;37795;53.236;5.704;2023-10-13T14:32:18;26.38;;;11.07;;
51718;SDS011;37795;53.236;5.704;2023-10-13T14:34:45;25.33;;;11.50;;
51718;SDS011;37795;53.236;5.704;2023-10-13T14:37:13;30.27;;;10.90;;
51718;SDS011;37795;53.236;5.704;2023-10-13T14:39:46;22.27;;;10.00;;
51718;SDS011;37795;53.236;5.704;2023-10-13T14:42:11;28.40;;;10.85;;
51718;SDS011;37795;53.236;5.704;2023-10-13T14:44:37;24.35;;;11.52;;
51718;SDS011;37795;53.236;5.704;2023-10-13T14:47:03;24.23;;;10.05;;
51718;SDS011;37795;53.236;5.704;2023-10-13T14:49:33;21.30;;;10.65;;
51718;SDS011;37795;53.236;5.704;2023-10-13T14:52:00;25.58;;;10.90;;
51718;SDS011;37795;53.236;5.704;2023-10-13T14:54:27;27.80;;;11.32;;
51718;SDS011;37795;53.236;5.704;2023-10-13T14:57:02;18.63;;;9.10;;
51718;SDS011;37795;53.236;5.704;2023-10-13T14:59:28;22.10;;;10.55;;
51718;SDS011;37795;53.236;5.704;2023-10-13T15:01:58;23.38;;;11.35;;
51718;SDS011;37795;53.236;5.704;2023-10-13T15:04:27;22.75;;;10.73;;
51718;SDS011;37795;53.236;5.704;2023-10-13T15:06:57;29.13;;;10.30;;
51718;SDS011;37795;53.236;5.704;2023-10-13T15:09:24;25.98;;;11.90;;
51718;SDS011;37795;53.236;5.704;2023-10-13T15:11:50;33.23;;;12.70;;
51718;SDS011;37795;53.236;5.704;2023-10-13T15:14:18;30.27;;;12.15;;
51718;SDS011;37795;53.236;5.704;2023-10-13T15:16:48;27.45;;;12.18;;
51718;SDS011;37795;53.236;5.704;2023-10-13T15:19:14;31.02;;;12.32;;
51718;SDS011;37795;53.236;5.704;2023-10-13T15:21:41;27.90;;;13.15;;
51718;SDS011;37795;53.236;5.704;2023-10-13T15:24:08;26.67;;;11.68;;
51718;SDS011;37795;53.236;5.704;2023-10-13T15:26:46;25.50;;;11.33;;
51718;SDS011;37795;53.236;5.704;2023-10-13T15:29:15;29.80;;;11.95;;
51718;SDS011;37795;53.236;5.704;2023-10-13T15:31:50;30.20;;;11.20;;
51718;SDS011;37795;53.236;5.704;2023-10-13T15:34:26;32.92;;;12.02;;
51718;SDS011;37795;53.236;5.704;2023-10-13T15:36:53;29.98;;;13.38;;
51718;SDS011;37795;53.236;5.704;2023-10-13T15:39:20;28.75;;;12.40;;
51718;SDS011;37795;53.236;5.704;2023-10-13T15:41:52;28.13;;;13.35;;
51718;SDS011;37795;53.236;5.704;2023-10-13T15:44:21;22.55;;;11.50;;
51718;SDS011;37795;53.236;5.704;2023-10-13T15:46:53;22.07;;;10.43;;
51718;SDS011;37795;53.236;5.704;2023-10-13T15:49:20;31.42;;;11.70;;